sensor_id;sensor_type;location;lat;lon;timestamp;pressure;altitude;pressure_sealevel;temperature;humidity
56040;BME280;43937;41.366;2.072;2024-02-26T00:01:53;99191.38;;;16.07;62.04
56040;BME280;43937;41.366;2.072;2024-02-26T00:04:19;99207.84;;;16.07;61.95
56040;BME280;43937;41.366;2.072;2024-02-26T00:06:44;99193.44;;;16.11;61.81
56040;BME280;43937;41.366;2.072;2024-02-26T00:09:10;99194.22;;;16.35;61.23
56040;BME280;43937;41.366;2.072;2024-02-26T00:11:38;99206.13;;;16.53;60.70
56040;BME280;43937;41.366;2.072;2024-02-26T00:14:04;99190.25;;;16.43;60.42
56040;BME280;43937;41.366;2.072;2024-02-26T00:16:29;99205.66;;;16.56;60.05
56040;BME280;43937;41.366;2.072;2024-02-26T00:18:55;99188.59;;;16.42;60.26
56040;BME280;43937;41.366;2.072;2024-02-26T00:21:20;99178.44;;;16.42;60.45
56040;BME280;43937;41.366;2.072;2024-02-26T00:23:46;99183.94;;;16.42;60.37
56040;BME280;43937;41.366;2.072;2024-02-26T00:26:11;99182.84;;;16.55;60.20
56040;BME280;43937;41.366;2.072;2024-02-26T00:28:37;99166.22;;;16.62;60.00
56040;BME280;43937;41.366;2.072;2024-02-26T00:31:03;99155.28;;;16.67;59.33
56040;BME280;43937;41.366;2.072;2024-02-26T00:33:28;99159.25;;;16.71;59.56
56040;BME280;43937;41.366;2.072;2024-02-26T00:35:54;99169.84;;;16.79;59.82
56040;BME280;43937;41.366;2.072;2024-02-26T00:38:19;99142.88;;;16.76;59.39
56040;BME280;43937;41.366;2.072;2024-02-26T00:40:45;99147.91;;;16.67;59.75
56040;BME280;43937;41.366;2.072;2024-02-26T00:43:13;99143.03;;;16.58;59.97
56040;BME280;43937;41.366;2.072;2024-02-26T00:45:39;99162.56;;;16.73;59.64
56040;BME280;43937;41.366;2.072;2024-02-26T00:48:05;99130.38;;;16.57;59.27
56040;BME280;43937;41.366;2.072;2024-02-26T00:50:31;99148.16;;;16.66;59.03
56040;BME280;43937;41.366;2.072;2024-02-26T00:52:56;99134.44;;;16.54;58.65
56040;BME280;43937;41.366;2.072;2024-02-26T00:55:22;99155.72;;;16.59;58.64
56040;BME280;43937;41.366;2.072;2024-02-26T00:57:47;99158.47;;;16.59;59.20
56040;BME280;43937;41.366;2.072;2024-02-26T01:00:13;99154.31;;;16.44;59.30
56040;BME280;43937;41.366;2.072;2024-02-26T01:02:39;99170.13;;;16.37;59.65
56040;BME280;43937;41.366;2.072;2024-02-26T01:05:05;99180.50;;;16.35;59.94
56040;BME280;43937;41.366;2.072;2024-02-26T01:07:31;99191.19;;;16.48;59.86
56040;BME280;43937;41.366;2.072;2024-02-26T01:10:01;99164.47;;;16.44;59.84
56040;BME280;43937;41.366;2.072;2024-02-26T01:12:27;99190.22;;;16.55;60.35
56040;BME280;43937;41.366;2.072;2024-02-26T01:14:52;99167.34;;;16.49;60.10
56040;BME280;43937;41.366;2.072;2024-02-26T01:17:18;99182.19;;;16.65;59.88
56040;BME280;43937;41.366;2.072;2024-02-26T01:19:43;99165.72;;;16.65;60.04
56040;BME280;43937;41.366;2.072;2024-02-26T01:22:09;99177.16;;;16.74;60.89
56040;BME280;43937;41.366;2.072;2024-02-26T01:24:34;99172.72;;;16.72;60.80
56040;BME280;43937;41.366;2.072;2024-02-26T01:27:00;99166.94;;;16.57;61.62
56040;BME280;43937;41.366;2.072;2024-02-26T01:29:25;99181.34;;;16.76;62.25
56040;BME280;43937;41.366;2.072;2024-02-26T01:31:51;99162.00;;;16.71;62.49
56040;BME280;43937;41.366;2.072;2024-02-26T01:34:16;99155.41;;;16.72;62.66
56040;BME280;43937;41.366;2.072;2024-02-26T01:36:43;99155.88;;;16.81;62.27
56040;BME280;43937;41.366;2.072;2024-02-26T01:39:09;99159.72;;;16.68;62.52
56040;BME280;43937;41.366;2.072;2024-02-26T01:41:40;99175.47;;;16.72;62.75
56040;BME280;43937;41.366;2.072;2024-02-26T01:44:06;99160.00;;;16.55;62.68
56040;BME280;43937;41.366;2.072;2024-02-26T01:46:33;99149.31;;;16.41;62.82
56040;BME280;43937;41.366;2.072;2024-02-26T01:49:00;99148.34;;;16.47;62.19
56040;BME280;43937;41.366;2.072;2024-02-26T01:51:26;99140.47;;;16.39;62.35
56040;BME280;43937;41.366;2.072;2024-02-26T01:53:52;99156.53;;;16.59;61.83
56040;BME280;43937;41.366;2.072;2024-02-26T01:56:19;99141.38;;;16.28;62.01
56040;BME280;43937;41.366;2.072;2024-02-26T01:58:46;99176.28;;;16.44;63.02
56040;BME280;43937;41.366;2.072;2024-02-26T02:01:12;99176.06;;;16.46;63.61
56040;BME280;43937;41.366;2.072;2024-02-26T02:03:38;99185.13;;;16.46;64.79
56040;BME280;43937;41.366;2.072;2024-02-26T02:06:04;99178.91;;;16.39;65.74
56040;BME280;43937;41.366;2.072;2024-02-26T02:08:30;99157.94;;;16.33;66.24
56040;BME280;43937;41.366;2.072;2024-02-26T02:10:56;99184.00;;;16.59;65.84
56040;BME280;43937;41.366;2.072;2024-02-26T02:13:21;99171.28;;;16.70;65.45
56040;BME280;43937;41.366;2.072;2024-02-26T02:15:47;99176.28;;;16.73;65.11
56040;BME280;43937;41.366;2.072;2024-02-26T02:18:12;99160.91;;;16.72;64.98
56040;BME280;43937;41.366;2.072;2024-02-26T02:20:38;99181.44;;;16.81;64.66
56040;BME280;43937;41.366;2.072;2024-02-26T02:23:03;99164.41;;;16.67;64.69
56040;BME280;43937;41.366;2.072;2024-02-26T02:25:29;99153.53;;;16.32;66.00
56040;BME280;43937;41.366;2.072;2024-02-26T02:27:55;99149.59;;;16.28;65.81
56040;BME280;43937;41.366;2.072;2024-02-26T02:30:22;99168.00;;;16.16;66.22
56040;BME280;43937;41.366;2.072;2024-02-26T02:32:49;99173.59;;;16.09;66.61
56040;BME280;43937;41.366;2.072;2024-02-26T02:35:14;99158.25;;;15.96;65.91
56040;BME280;43937;41.366;2.072;2024-02-26T02:37:40;99158.47;;;15.60;66.36
56040;BME280;43937;41.366;2.072;2024-02-26T02:40:06;99167.22;;;15.80;66.02
56040;BME280;43937;41.366;2.072;2024-02-26T02:42:31;99164.94;;;15.89;65.25
56040;BME280;43937;41.366;2.072;2024-02-26T02:44:57;99176.84;;;15.94;65.13
56040;BME280;43937;41.366;2.072;2024-02-26T02:47:22;99177.22;;;15.86;65.04
56040;BME280;43937;41.366;2.072;2024-02-26T02:49:48;99162.69;;;15.86;64.76
56040;BME280;43937;41.366;2.072;2024-02-26T02:52:13;99152.75;;;15.73;64.94
56040;BME280;43937;41.366;2.072;2024-02-26T02:54:39;99159.13;;;15.73;64.59
56040;BME280;43937;41.366;2.072;2024-02-26T02:57:07;99166.13;;;15.81;64.53
56040;BME280;43937;41.366;2.072;2024-02-26T02:59:33;99167.91;;;15.75;64.71
56040;BME280;43937;41.366;2.072;2024-02-26T03:01:58;99156.69;;;15.53;64.68
56040;BME280;43937;41.366;2.072;2024-02-26T03:04:24;99170.75;;;15.57;64.77
56040;BME280;43937;41.366;2.072;2024-02-26T03:06:49;99140.81;;;15.32;65.51
56040;BME280;43937;41.366;2.072;2024-02-26T03:09:15;99157.94;;;15.16;65.63
56040;BME280;43937;41.366;2.072;2024-02-26T03:11:40;99144.19;;;14.92;66.14
56040;BME280;43937;41.366;2.072;2024-02-26T03:14:06;99148.69;;;14.86;65.93
56040;BME280;43937;41.366;2.072;2024-02-26T03:16:32;99139.94;;;14.66;66.69
56040;BME280;43937;41.366;2.072;2024-02-26T03:18:57;99119.34;;;14.45;66.59
56040;BME280;43937;41.366;2.072;2024-02-26T03:21:24;99139.13;;;14.47;66.94
56040;BME280;43937;41.366;2.072;2024-02-26T03:23:50;99131.69;;;14.36;66.58
56040;BME280;43937;41.366;2.072;2024-02-26T03:26:15;99119.53;;;14.32;66.72
56040;BME280;43937;41.366;2.072;2024-02-26T03:28:41;99114.38;;;14.05;67.44
56040;BME280;43937;41.366;2.072;2024-02-26T03:31:06;99118.66;;;14.01;67.61
56040;BME280;43937;41.366;2.072;2024-02-26T03:33:34;99104.56;;;13.97;67.92
56040;BME280;43937;41.366;2.072;2024-02-26T03:36:02;99100.34;;;13.83;68.66
56040;BME280;43937;41.366;2.072;2024-02-26T03:38:29;99095.00;;;13.70;69.00
56040;BME280;43937;41.366;2.072;2024-02-26T03:40:54;99109.06;;;13.73;69.30
56040;BME280;43937;41.366;2.072;2024-02-26T03:43:20;99098.56;;;13.70;69.33
56040;BME280;43937;41.366;2.072;2024-02-26T03:45:48;99112.13;;;13.84;68.86
56040;BME280;43937;41.366;2.072;2024-02-26T03:48:14;99094.78;;;13.90;68.56
56040;BME280;43937;41.366;2.072;2024-02-26T03:50:39;99077.03;;;13.81;68.23
56040;BME280;43937;41.366;2.072;2024-02-26T03:53:05;99097.13;;;14.05;67.71
56040;BME280;43937;41.366;2.072;2024-02-26T03:55:30;99102.81;;;14.21;66.93
56040;BME280;43937;41.366;2.072;2024-02-26T03:57:56;99115.91;;;14.19;66.91
56040;BME280;43937;41.366;2.072;2024-02-26T04:00:22;99111.06;;;14.33;65.96
56040;BME280;43937;41.366;2.072;2024-02-26T04:02:47;99119.81;;;14.42;65.98
56040;BME280;43937;41.366;2.072;2024-02-26T04:05:13;99123.97;;;14.63;65.26
56040;BME280;43937;41.366;2.072;2024-02-26T04:07:40;99114.31;;;14.60;65.38
56040;BME280;43937;41.366;2.072;2024-02-26T04:10:12;99122.25;;;14.80;64.51
56040;BME280;43937;41.366;2.072;2024-02-26T04:12:42;99116.41;;;14.88;64.18
56040;BME280;43937;41.366;2.072;2024-02-26T04:15:08;99138.28;;;15.07;63.71
56040;BME280;43937;41.366;2.072;2024-02-26T04:17:34;99137.31;;;15.01;64.14
56040;BME280;43937;41.366;2.072;2024-02-26T04:19:59;99145.78;;;15.11;63.59
56040;BME280;43937;41.366;2.072;2024-02-26T04:22:25;99124.09;;;14.98;63.61
56040;BME280;43937;41.366;2.072;2024-02-26T04:24:50;99149.00;;;15.08;63.11
56040;BME280;43937;41.366;2.072;2024-02-26T04:27:16;99149.25;;;15.07;63.70
56040;BME280;43937;41.366;2.072;2024-02-26T04:29:41;99152.91;;;15.12;63.53
56040;BME280;43937;41.366;2.072;2024-02-26T04:32:07;99141.84;;;15.07;63.20
56040;BME280;43937;41.366;2.072;2024-02-26T04:34:32;99144.59;;;15.07;62.81
56040;BME280;43937;41.366;2.072;2024-02-26T04:36:58;99169.75;;;15.28;63.07
56040;BME280;43937;41.366;2.072;2024-02-26T04:39:23;99178.44;;;15.25;63.16
56040;BME280;43937;41.366;2.072;2024-02-26T04:41:49;99174.91;;;14.94;63.70
56040;BME280;43937;41.366;2.072;2024-02-26T04:44:14;99167.00;;;14.74;64.36
56040;BME280;43937;41.366;2.072;2024-02-26T04:46:39;99161.03;;;14.47;65.13
56040;BME280;43937;41.366;2.072;2024-02-26T04:49:05;99161.47;;;14.44;65.56
56040;BME280;43937;41.366;2.072;2024-02-26T04:51:31;99167.09;;;14.31;66.00
56040;BME280;43937;41.366;2.072;2024-02-26T04:53:56;99181.13;;;14.23;66.44
56040;BME280;43937;41.366;2.072;2024-02-26T04:56:21;99197.91;;;14.26;66.52
56040;BME280;43937;41.366;2.072;2024-02-26T04:58:47;99193.44;;;14.32;65.81
56040;BME280;43937;41.366;2.072;2024-02-26T05:01:13;99180.13;;;14.35;65.79
56040;BME280;43937;41.366;2.072;2024-02-26T05:03:39;99167.34;;;14.11;65.78
56040;BME280;43937;41.366;2.072;2024-02-26T05:06:05;99190.75;;;14.07;67.31
56040;BME280;43937;41.366;2.072;2024-02-26T05:08:30;99183.78;;;14.11;66.70
56040;BME280;43937;41.366;2.072;2024-02-26T05:10:56;99208.03;;;14.26;66.73
56040;BME280;43937;41.366;2.072;2024-02-26T05:13:22;99218.19;;;14.37;65.93
56040;BME280;43937;41.366;2.072;2024-02-26T05:15:47;99224.56;;;14.49;65.95
56040;BME280;43937;41.366;2.072;2024-02-26T05:18:15;99213.50;;;14.26;66.14
56040;BME280;43937;41.366;2.072;2024-02-26T05:20:40;99231.41;;;14.40;65.88
56040;BME280;43937;41.366;2.072;2024-02-26T05:23:06;99207.88;;;14.39;66.00
56040;BME280;43937;41.366;2.072;2024-02-26T05:25:31;99224.56;;;14.49;65.40
56040;BME280;43937;41.366;2.072;2024-02-26T05:27:57;99212.38;;;14.52;65.61
56040;BME280;43937;41.366;2.072;2024-02-26T05:30:22;99167.03;;;14.19;65.23
56040;BME280;43937;41.366;2.072;2024-02-26T05:32:48;99216.69;;;14.59;65.23
56040;BME280;43937;41.366;2.072;2024-02-26T05:35:13;99217.69;;;14.65;64.80
56040;BME280;43937;41.366;2.072;2024-02-26T05:37:42;99224.22;;;14.64;64.57
56040;BME280;43937;41.366;2.072;2024-02-26T05:40:08;99215.16;;;14.63;64.73
56040;BME280;43937;41.366;2.072;2024-02-26T05:42:33;99198.72;;;14.63;64.01
56040;BME280;43937;41.366;2.072;2024-02-26T05:44:59;99204.78;;;14.84;63.50
56040;BME280;43937;41.366;2.072;2024-02-26T05:47:24;99200.50;;;14.88;63.50
56040;BME280;43937;41.366;2.072;2024-02-26T05:49:50;99197.25;;;14.79;63.27
56040;BME280;43937;41.366;2.072;2024-02-26T05:52:15;99214.91;;;14.83;63.15
56040;BME280;43937;41.366;2.072;2024-02-26T05:54:40;99239.53;;;15.02;62.68
56040;BME280;43937;41.366;2.072;2024-02-26T05:57:06;99234.72;;;14.97;62.47
56040;BME280;43937;41.366;2.072;2024-02-26T05:59:31;99236.72;;;14.90;62.58
56040;BME280;43937;41.366;2.072;2024-02-26T06:01:57;99223.44;;;14.75;63.10
56040;BME280;43937;41.366;2.072;2024-02-26T06:04:22;99245.63;;;14.85;63.58
56040;BME280;43937;41.366;2.072;2024-02-26T06:06:47;99231.25;;;14.90;62.63
56040;BME280;43937;41.366;2.072;2024-02-26T06:09:13;99230.31;;;14.96;61.92
56040;BME280;43937;41.366;2.072;2024-02-26T06:11:38;99215.78;;;14.96;61.73
56040;BME280;43937;41.366;2.072;2024-02-26T06:14:04;99230.75;;;15.11;61.20
56040;BME280;43937;41.366;2.072;2024-02-26T06:16:30;99241.09;;;15.09;61.57
56040;BME280;43937;41.366;2.072;2024-02-26T06:18:55;99240.16;;;15.16;60.81
56040;BME280;43937;41.366;2.072;2024-02-26T06:21:21;99219.72;;;15.00;61.18
56040;BME280;43937;41.366;2.072;2024-02-26T06:23:47;99234.66;;;15.16;60.80
56040;BME280;43937;41.366;2.072;2024-02-26T06:26:12;99238.69;;;15.31;60.40
56040;BME280;43937;41.366;2.072;2024-02-26T06:28:38;99222.31;;;15.25;60.22
56040;BME280;43937;41.366;2.072;2024-02-26T06:31:05;99228.41;;;15.27;59.53
56040;BME280;43937;41.366;2.072;2024-02-26T06:33:31;99224.09;;;15.31;59.42
56040;BME280;43937;41.366;2.072;2024-02-26T06:35:57;99218.75;;;15.36;58.86
56040;BME280;43937;41.366;2.072;2024-02-26T06:38:22;99224.72;;;15.33;59.11
56040;BME280;43937;41.366;2.072;2024-02-26T06:40:48;99218.69;;;15.12;57.04
56040;BME280;43937;41.366;2.072;2024-02-26T06:43:14;99202.50;;;15.11;56.34
56040;BME280;43937;41.366;2.072;2024-02-26T06:45:39;99232.59;;;15.41;56.00
56040;BME280;43937;41.366;2.072;2024-02-26T06:48:05;99209.72;;;15.35;55.77
56040;BME280;43937;41.366;2.072;2024-02-26T06:50:30;99199.00;;;15.34;55.76
56040;BME280;43937;41.366;2.072;2024-02-26T06:52:56;99207.69;;;15.43;55.14
56040;BME280;43937;41.366;2.072;2024-02-26T06:55:21;99232.59;;;15.41;54.91
56040;BME280;43937;41.366;2.072;2024-02-26T06:57:46;99203.38;;;15.23;55.57
56040;BME280;43937;41.366;2.072;2024-02-26T07:00:12;99192.03;;;15.20;55.29
56040;BME280;43937;41.366;2.072;2024-02-26T07:02:41;99202.28;;;15.24;54.66
56040;BME280;43937;41.366;2.072;2024-02-26T07:05:06;99188.53;;;15.12;54.47
56040;BME280;43937;41.366;2.072;2024-02-26T07:07:32;99197.63;;;15.25;54.45
56040;BME280;43937;41.366;2.072;2024-02-26T07:09:58;99188.69;;;15.18;53.76
56040;BME280;43937;41.366;2.072;2024-02-26T07:12:23;99209.22;;;15.27;54.08
56040;BME280;43937;41.366;2.072;2024-02-26T07:14:49;99221.66;;;15.53;53.17
56040;BME280;43937;41.366;2.072;2024-02-26T07:17:15;99224.19;;;15.66;53.70
56040;BME280;43937;41.366;2.072;2024-02-26T07:19:42;99229.56;;;15.73;53.55
56040;BME280;43937;41.366;2.072;2024-02-26T07:22:07;99240.59;;;15.43;55.45
56040;BME280;43937;41.366;2.072;2024-02-26T07:24:33;99234.34;;;15.24;55.70
56040;BME280;43937;41.366;2.072;2024-02-26T07:26:58;99225.91;;;15.25;56.13
56040;BME280;43937;41.366;2.072;2024-02-26T07:29:23;99232.38;;;15.54;55.04
56040;BME280;43937;41.366;2.072;2024-02-26T07:31:49;99237.22;;;15.94;53.72
56040;BME280;43937;41.366;2.072;2024-02-26T07:34:14;99227.19;;;16.12;53.04
56040;BME280;43937;41.366;2.072;2024-02-26T07:36:40;99230.28;;;16.27;52.39
56040;BME280;43937;41.366;2.072;2024-02-26T07:39:05;99219.13;;;16.57;52.02
56040;BME280;43937;41.366;2.072;2024-02-26T07:41:31;99227.28;;;16.92;51.40
56040;BME280;43937;41.366;2.072;2024-02-26T07:43:56;99223.78;;;16.97;50.74
56040;BME280;43937;41.366;2.072;2024-02-26T07:46:22;99236.63;;;16.91;50.71
56040;BME280;43937;41.366;2.072;2024-02-26T07:48:47;99235.28;;;16.42;50.45
56040;BME280;43937;41.366;2.072;2024-02-26T07:51:13;99248.63;;;16.62;50.87
56040;BME280;43937;41.366;2.072;2024-02-26T07:53:39;99245.25;;;16.71;50.33
56040;BME280;43937;41.366;2.072;2024-02-26T07:56:05;99241.84;;;16.93;49.78
56040;BME280;43937;41.366;2.072;2024-02-26T07:58:32;99264.19;;;17.25;48.55
56040;BME280;43937;41.366;2.072;2024-02-26T08:00:57;99257.00;;;17.24;48.27
56040;BME280;43937;41.366;2.072;2024-02-26T08:03:23;99265.75;;;17.21;47.07
56040;BME280;43937;41.366;2.072;2024-02-26T08:05:48;99263.72;;;17.45;46.40
56040;BME280;43937;41.366;2.072;2024-02-26T08:08:14;99284.63;;;18.25;46.06
56040;BME280;43937;41.366;2.072;2024-02-26T08:10:39;99264.69;;;20.52;42.03
56040;BME280;43937;41.366;2.072;2024-02-26T08:13:04;99281.16;;;25.09;34.23
56040;BME280;43937;41.366;2.072;2024-02-26T08:15:34;99301.41;;;27.30;33.53
56040;BME280;43937;41.366;2.072;2024-02-26T08:18:02;99288.19;;;29.02;28.85
56040;BME280;43937;41.366;2.072;2024-02-26T08:20:29;99293.72;;;27.50;28.71
56040;BME280;43937;41.366;2.072;2024-02-26T08:27:10;99308.03;;;29.32;31.48
56040;BME280;43937;41.366;2.072;2024-02-26T08:29:36;99297.81;;;29.27;25.77
56040;BME280;43937;41.366;2.072;2024-02-26T08:32:01;99290.34;;;29.05;25.80
56040;BME280;43937;41.366;2.072;2024-02-26T08:34:27;99269.72;;;29.10;25.82
56040;BME280;43937;41.366;2.072;2024-02-26T08:36:52;99275.13;;;28.58;27.29
56040;BME280;43937;41.366;2.072;2024-02-26T08:39:18;99242.56;;;28.08;26.98
56040;BME280;43937;41.366;2.072;2024-02-26T08:41:44;99246.25;;;27.95;27.75
56040;BME280;43937;41.366;2.072;2024-02-26T08:44:10;99242.66;;;26.53;28.80
56040;BME280;43937;41.366;2.072;2024-02-26T08:46:36;99238.38;;;25.43;29.67
56040;BME280;43937;41.366;2.072;2024-02-26T08:49:01;99246.94;;;26.17;30.57
56040;BME280;43937;41.366;2.072;2024-02-26T08:51:27;99261.06;;;26.95;29.17
56040;BME280;43937;41.366;2.072;2024-02-26T08:53:52;99250.63;;;26.87;27.75
56040;BME280;43937;41.366;2.072;2024-02-26T08:56:19;99253.28;;;26.04;31.03
56040;BME280;43937;41.366;2.072;2024-02-26T08:58:47;99265.88;;;24.83;31.09
56040;BME280;43937;41.366;2.072;2024-02-26T09:01:14;99261.31;;;24.68;31.15
56040;BME280;43937;41.366;2.072;2024-02-26T09:03:40;99249.81;;;22.08;34.20
56040;BME280;43937;41.366;2.072;2024-02-26T09:06:06;99234.03;;;22.03;38.55
56040;BME280;43937;41.366;2.072;2024-02-26T09:08:32;99244.84;;;22.15;35.60
56040;BME280;43937;41.366;2.072;2024-02-26T09:10:58;99260.78;;;21.21;37.62
56040;BME280;43937;41.366;2.072;2024-02-26T09:13:23;99248.91;;;20.10;38.33
56040;BME280;43937;41.366;2.072;2024-02-26T09:15:49;99235.97;;;19.78;40.54
56040;BME280;43937;41.366;2.072;2024-02-26T09:18:14;99251.78;;;19.88;39.44
56040;BME280;43937;41.366;2.072;2024-02-26T09:20:40;99258.03;;;19.19;39.84
56040;BME280;43937;41.366;2.072;2024-02-26T09:23:06;99266.81;;;19.43;41.71
56040;BME280;43937;41.366;2.072;2024-02-26T09:25:31;99268.00;;;19.25;41.11
56040;BME280;43937;41.366;2.072;2024-02-26T09:27:59;99268.31;;;18.80;41.48
56040;BME280;43937;41.366;2.072;2024-02-26T09:30:24;99266.88;;;18.55;42.10
56040;BME280;43937;41.366;2.072;2024-02-26T09:32:50;99269.38;;;19.50;43.91
56040;BME280;43937;41.366;2.072;2024-02-26T09:35:15;99242.16;;;19.63;41.46
56040;BME280;43937;41.366;2.072;2024-02-26T09:37:41;99273.06;;;20.30;44.65
56040;BME280;43937;41.366;2.072;2024-02-26T09:40:08;99264.53;;;19.94;40.01
56040;BME280;43937;41.366;2.072;2024-02-26T09:42:37;99253.31;;;19.74;39.96
56040;BME280;43937;41.366;2.072;2024-02-26T09:45:05;99252.22;;;19.48;42.16
56040;BME280;43937;41.366;2.072;2024-02-26T09:47:34;99251.91;;;19.44;40.55
56040;BME280;43937;41.366;2.072;2024-02-26T09:50:01;99252.34;;;19.58;40.31
56040;BME280;43937;41.366;2.072;2024-02-26T09:52:28;99241.72;;;19.17;42.46
56040;BME280;43937;41.366;2.072;2024-02-26T09:54:56;99247.81;;;19.47;41.11
56040;BME280;43937;41.366;2.072;2024-02-26T09:57:21;99250.03;;;19.50;39.83
56040;BME280;43937;41.366;2.072;2024-02-26T09:59:51;99264.22;;;19.31;39.86
56040;BME280;43937;41.366;2.072;2024-02-26T10:02:19;99242.13;;;19.31;39.66
56040;BME280;43937;41.366;2.072;2024-02-26T10:04:47;99253.41;;;19.25;40.28
56040;BME280;43937;41.366;2.072;2024-02-26T10:07:16;99249.56;;;18.82;40.89
56040;BME280;43937;41.366;2.072;2024-02-26T10:09:41;99238.22;;;18.56;41.07
56040;BME280;43937;41.366;2.072;2024-02-26T10:12:10;99209.13;;;18.65;40.78
56040;BME280;43937;41.366;2.072;2024-02-26T10:14:36;99220.72;;;18.67;40.96
56040;BME280;43937;41.366;2.072;2024-02-26T10:17:02;99230.75;;;19.22;39.89
56040;BME280;43937;41.366;2.072;2024-02-26T10:19:29;99238.81;;;19.29;39.13
56040;BME280;43937;41.366;2.072;2024-02-26T10:21:59;99221.41;;;19.29;39.71
56040;BME280;43937;41.366;2.072;2024-02-26T10:24:29;99215.47;;;18.88;40.12
56040;BME280;43937;41.366;2.072;2024-02-26T10:26:55;99219.91;;;19.75;38.90
56040;BME280;43937;41.366;2.072;2024-02-26T10:29:23;99225.31;;;19.92;38.05
56040;BME280;43937;41.366;2.072;2024-02-26T10:31:51;99175.34;;;19.99;37.79
56040;BME280;43937;41.366;2.072;2024-02-26T10:34:17;99225.88;;;19.62;38.39
56040;BME280;43937;41.366;2.072;2024-02-26T10:36:42;99207.44;;;19.67;38.55
56040;BME280;43937;41.366;2.072;2024-02-26T10:39:11;99228.28;;;20.23;37.99
56040;BME280;43937;41.366;2.072;2024-02-26T10:41:37;99228.97;;;19.38;38.63
56040;BME280;43937;41.366;2.072;2024-02-26T10:44:03;99220.66;;;18.84;39.95
56040;BME280;43937;41.366;2.072;2024-02-26T10:46:29;99221.66;;;19.00;39.59
56040;BME280;43937;41.366;2.072;2024-02-26T10:48:55;99208.94;;;19.53;38.76
56040;BME280;43937;41.366;2.072;2024-02-26T10:51:29;99217.91;;;19.65;38.33
56040;BME280;43937;41.366;2.072;2024-02-26T10:53:58;99192.75;;;19.99;37.41
56040;BME280;43937;41.366;2.072;2024-02-26T10:56:26;99189.06;;;20.26;37.07
56040;BME280;43937;41.366;2.072;2024-02-26T10:58:55;99190.97;;;20.73;36.42
56040;BME280;43937;41.366;2.072;2024-02-26T11:01:22;99171.38;;;20.95;36.10
56040;BME280;43937;41.366;2.072;2024-02-26T11:03:52;99175.50;;;20.87;35.74
56040;BME280;43937;41.366;2.072;2024-02-26T11:06:19;99175.34;;;20.46;36.38
56040;BME280;43937;41.366;2.072;2024-02-26T11:08:50;99163.69;;;20.39;36.23
56040;BME280;43937;41.366;2.072;2024-02-26T11:11:19;99188.66;;;20.54;36.21
56040;BME280;43937;41.366;2.072;2024-02-26T11:13:47;99199.94;;;20.48;35.98
56040;BME280;43937;41.366;2.072;2024-02-26T11:16:20;99190.19;;;20.35;36.52
56040;BME280;43937;41.366;2.072;2024-02-26T11:18:47;99233.16;;;20.53;35.83
56040;BME280;43937;41.366;2.072;2024-02-26T11:21:17;99236.81;;;20.64;36.24
56040;BME280;43937;41.366;2.072;2024-02-26T11:23:53;99241.31;;;20.80;35.97
56040;BME280;43937;41.366;2.072;2024-02-26T11:26:19;99237.47;;;20.96;35.63
56040;BME280;43937;41.366;2.072;2024-02-26T11:28:46;99226.19;;;21.23;34.88
56040;BME280;43937;41.366;2.072;2024-02-26T11:31:13;99235.16;;;21.46;34.83
56040;BME280;43937;41.366;2.072;2024-02-26T11:33:39;99239.84;;;21.81;34.33
56040;BME280;43937;41.366;2.072;2024-02-26T11:36:09;99221.31;;;21.97;34.97
56040;BME280;43937;41.366;2.072;2024-02-26T11:38:35;99229.31;;;22.19;33.89
56040;BME280;43937;41.366;2.072;2024-02-26T11:41:01;99239.16;;;22.66;34.55
56040;BME280;43937;41.366;2.072;2024-02-26T11:43:57;99215.06;;;22.61;33.04
56040;BME280;43937;41.366;2.072;2024-02-26T11:46:33;99234.56;;;22.26;33.86
56040;BME280;43937;41.366;2.072;2024-02-26T11:51:55;99194.28;;;22.54;33.65
56040;BME280;43937;41.366;2.072;2024-02-26T11:54:59;99211.00;;;22.28;33.26
56040;BME280;43937;41.366;2.072;2024-02-26T11:57:38;99194.78;;;22.66;32.37
56040;BME280;43937;41.366;2.072;2024-02-26T12:02:44;99202.59;;;22.54;32.14
56040;BME280;43937;41.366;2.072;2024-02-26T12:05:18;99186.63;;;22.10;32.20
56040;BME280;43937;41.366;2.072;2024-02-26T12:07:55;99191.97;;;21.55;33.25
56040;BME280;43937;41.366;2.072;2024-02-26T12:10:31;99196.38;;;21.97;32.28
56040;BME280;43937;41.366;2.072;2024-02-26T12:15:45;99186.31;;;22.32;30.54
56040;BME280;43937;41.366;2.072;2024-02-26T12:18:18;99178.34;;;21.94;31.42
56040;BME280;43937;41.366;2.072;2024-02-26T12:20:43;99159.00;;;21.59;30.00
56040;BME280;43937;41.366;2.072;2024-02-26T12:23:14;99165.09;;;21.56;29.19
56040;BME280;43937;41.366;2.072;2024-02-26T12:25:40;99149.06;;;21.42;29.36
56040;BME280;43937;41.366;2.072;2024-02-26T12:28:07;99159.00;;;21.54;29.63
56040;BME280;43937;41.366;2.072;2024-02-26T12:30:32;99160.59;;;20.88;30.99
56040;BME280;43937;41.366;2.072;2024-02-26T12:32:59;99149.34;;;21.46;29.86
56040;BME280;43937;41.366;2.072;2024-02-26T12:35:26;99143.47;;;21.17;29.78
56040;BME280;43937;41.366;2.072;2024-02-26T12:37:53;99143.22;;;21.44;29.85
56040;BME280;43937;41.366;2.072;2024-02-26T12:40:19;99152.63;;;21.68;29.68
56040;BME280;43937;41.366;2.072;2024-02-26T12:42:45;99139.34;;;21.55;29.40
56040;BME280;43937;41.366;2.072;2024-02-26T12:45:12;99136.84;;;21.13;30.31
56040;BME280;43937;41.366;2.072;2024-02-26T12:47:42;99136.31;;;21.67;29.91
56040;BME280;43937;41.366;2.072;2024-02-26T12:50:09;99135.72;;;21.75;29.60
56040;BME280;43937;41.366;2.072;2024-02-26T12:52:41;99137.94;;;21.63;30.00
56040;BME280;43937;41.366;2.072;2024-02-26T12:55:07;99129.69;;;21.37;30.43
56040;BME280;43937;41.366;2.072;2024-02-26T12:57:37;99127.44;;;21.70;29.93
56040;BME280;43937;41.366;2.072;2024-02-26T13:00:05;99115.00;;;21.52;29.63
56040;BME280;43937;41.366;2.072;2024-02-26T13:02:35;99126.84;;;21.78;29.78
56040;BME280;43937;41.366;2.072;2024-02-26T13:05:02;99099.22;;;21.47;29.98
56040;BME280;43937;41.366;2.072;2024-02-26T13:07:28;99095.34;;;21.43;29.78
56040;BME280;43937;41.366;2.072;2024-02-26T13:09:54;99093.41;;;21.18;29.63